sensor_id;sensor_type;location;lat;lon;timestamp;temperature;humidity
61207;DHT22;47070;49.212;8.084;2022-12-05T00:01:59;6.70;99.90
61207;DHT22;47070;49.212;8.084;2022-12-05T00:05:59;6.90;99.90
61207;DHT22;47070;49.212;8.084;2022-12-05T00:10:00;7.00;99.90
61207;DHT22;47070;49.212;8.084;2022-12-05T00:14:01;6.90;99.90
61207;DHT22;47070;49.212;8.084;2022-12-05T00:18:01;6.90;99.90
61207;DHT22;47070;49.212;8.084;2022-12-05T00:22:02;6.90;99.90
61207;DHT22;47070;49.212;8.084;2022-12-05T00:26:03;6.90;99.90
61207;DHT22;47070;49.212;8.084;2022-12-05T00:30:04;6.60;99.90
61207;DHT22;47070;49.212;8.084;2022-12-05T00:34:05;6.70;99.90
61207;DHT22;47070;49.212;8.084;2022-12-05T00:38:05;6.90;99.90
61207;DHT22;47070;49.212;8.084;2022-12-05T00:42:06;6.90;99.90
61207;DHT22;47070;49.212;8.084;2022-12-05T00:46:10;6.90;99.90
61207;DHT22;47070;49.212;8.084;2022-12-05T00:50:10;7.00;99.90
61207;DHT22;47070;49.212;8.084;2022-12-05T00:54:12;7.00;99.90
61207;DHT22;47070;49.212;8.084;2022-12-05T00:58:12;7.10;99.90
61207;DHT22;47070;49.212;8.084;2022-12-05T01:02:13;7.10;99.90
61207;DHT22;47070;49.212;8.084;2022-12-05T01:06:14;7.10;99.90
61207;DHT22;47070;49.212;8.084;2022-12-05T01:10:14;6.90;99.90
61207;DHT22;47070;49.212;8.084;2022-12-05T01:14:16;6.90;99.90
61207;DHT22;47070;49.212;8.084;2022-12-05T01:18:17;6.80;99.90
61207;DHT22;47070;49.212;8.084;2022-12-05T01:22:18;6.90;99.90
61207;DHT22;47070;49.212;8.084;2022-12-05T01:26:19;6.90;99.90
61207;DHT22;47070;49.212;8.084;2022-12-05T01:30:20;6.90;99.90
61207;DHT22;47070;49.212;8.084;2022-12-05T01:34:20;6.60;99.90
61207;DHT22;47070;49.212;8.084;2022-12-05T01:38:21;6.60;99.90
61207;DHT22;47070;49.212;8.084;2022-12-05T01:42:21;6.80;99.90
61207;DHT22;47070;49.212;8.084;2022-12-05T01:46:22;6.80;99.90
61207;DHT22;47070;49.212;8.084;2022-12-05T01:50:22;6.90;99.90
61207;DHT22;47070;49.212;8.084;2022-12-05T01:54:23;6.80;99.90
61207;DHT22;47070;49.212;8.084;2022-12-05T01:58:24;6.90;99.90
61207;DHT22;47070;49.212;8.084;2022-12-05T02:02:27;6.80;99.90
61207;DHT22;47070;49.212;8.084;2022-12-05T02:06:28;6.70;99.90
61207;DHT22;47070;49.212;8.084;2022-12-05T02:10:29;6.60;99.90
61207;DHT22;47070;49.212;8.084;2022-12-05T02:19:10;6.70;99.90
61207;DHT22;47070;49.212;8.084;2022-12-05T02:31:44;7.10;99.90
61207;DHT22;47070;49.212;8.084;2022-12-05T02:36:03;7.00;99.90
61207;DHT22;47070;49.212;8.084;2022-12-05T02:40:09;7.00;99.90
61207;DHT22;47070;49.212;8.084;2022-12-05T02:44:13;7.00;99.90
61207;DHT22;47070;49.212;8.084;2022-12-05T02:48:14;7.00;99.90
61207;DHT22;47070;49.212;8.084;2022-12-05T02:52:16;7.20;99.90
61207;DHT22;47070;49.212;8.084;2022-12-05T02:56:17;7.30;99.90
61207;DHT22;47070;49.212;8.084;2022-12-05T03:00:18;7.20;99.90
61207;DHT22;47070;49.212;8.084;2022-12-05T03:04:19;7.20;99.90
61207;DHT22;47070;49.212;8.084;2022-12-05T03:08:22;7.10;99.90
61207;DHT22;47070;49.212;8.084;2022-12-05T03:12:25;7.10;99.90
61207;DHT22;47070;49.212;8.084;2022-12-05T03:16:38;7.00;99.90
61207;DHT22;47070;49.212;8.084;2022-12-05T03:20:42;7.10;99.90
61207;DHT22;47070;49.212;8.084;2022-12-05T03:24:44;6.90;99.90
61207;DHT22;47070;49.212;8.084;2022-12-05T03:33:12;7.40;99.90
61207;DHT22;47070;49.212;8.084;2022-12-05T03:37:17;7.20;99.90
61207;DHT22;47070;49.212;8.084;2022-12-05T03:41:24;7.00;99.90
61207;DHT22;47070;49.212;8.084;2022-12-05T03:45:28;7.00;99.90
61207;DHT22;47070;49.212;8.084;2022-12-05T03:49:35;7.00;99.90
61207;DHT22;47070;49.212;8.084;2022-12-05T03:53:40;7.00;99.90
61207;DHT22;47070;49.212;8.084;2022-12-05T03:57:43;6.80;99.90
61207;DHT22;47070;49.212;8.084;2022-12-05T04:01:46;6.70;99.90
61207;DHT22;47070;49.212;8.084;2022-12-05T04:05:54;6.80;99.90
61207;DHT22;47070;49.212;8.084;2022-12-05T04:09:56;6.80;99.90
61207;DHT22;47070;49.212;8.084;2022-12-05T04:14:00;6.70;99.90
61207;DHT22;47070;49.212;8.084;2022-12-05T04:18:01;6.70;99.90
61207;DHT22;47070;49.212;8.084;2022-12-05T04:22:02;6.60;99.90
61207;DHT22;47070;49.212;8.084;2022-12-05T04:26:22;6.70;99.90
61207;DHT22;47070;49.212;8.084;2022-12-05T04:30:24;6.60;99.90
61207;DHT22;47070;49.212;8.084;2022-12-05T04:34:25;6.50;99.90
61207;DHT22;47070;49.212;8.084;2022-12-05T04:38:31;6.50;99.90
61207;DHT22;47070;49.212;8.084;2022-12-05T04:42:36;6.50;99.90
61207;DHT22;47070;49.212;8.084;2022-12-05T04:46:37;6.60;99.90
61207;DHT22;47070;49.212;8.084;2022-12-05T04:50:40;6.40;99.90
61207;DHT22;47070;49.212;8.084;2022-12-05T04:55:01;6.60;99.90
61207;DHT22;47070;49.212;8.084;2022-12-05T04:59:04;6.80;99.90
61207;DHT22;47070;49.212;8.084;2022-12-05T05:07:08;6.90;99.90
61207;DHT22;47070;49.212;8.084;2022-12-05T05:15:19;7.00;99.90
61207;DHT22;47070;49.212;8.084;2022-12-05T05:19:20;7.00;99.90
61207;DHT22;47070;49.212;8.084;2022-12-05T05:23:20;7.00;99.90
61207;DHT22;47070;49.212;8.084;2022-12-05T05:27:20;7.20;99.90
61207;DHT22;47070;49.212;8.084;2022-12-05T05:31:21;7.20;99.90
61207;DHT22;47070;49.212;8.084;2022-12-05T05:35:21;7.20;99.90
61207;DHT22;47070;49.212;8.084;2022-12-05T05:39:22;7.10;99.90
61207;DHT22;47070;49.212;8.084;2022-12-05T05:43:22;6.90;99.90
61207;DHT22;47070;49.212;8.084;2022-12-05T05:47:23;7.10;99.90
61207;DHT22;47070;49.212;8.084;2022-12-05T05:51:23;7.10;99.90
61207;DHT22;47070;49.212;8.084;2022-12-05T05:55:28;7.30;99.90
61207;DHT22;47070;49.212;8.084;2022-12-05T05:59:28;7.10;99.90
61207;DHT22;47070;49.212;8.084;2022-12-05T06:03:29;7.10;99.90
61207;DHT22;47070;49.212;8.084;2022-12-05T06:07:29;7.40;99.90
61207;DHT22;47070;49.212;8.084;2022-12-05T06:11:30;7.50;99.90
61207;DHT22;47070;49.212;8.084;2022-12-05T06:15:30;7.40;99.90
61207;DHT22;47070;49.212;8.084;2022-12-05T06:19:31;7.50;99.90
61207;DHT22;47070;49.212;8.084;2022-12-05T06:23:31;7.40;99.90
61207;DHT22;47070;49.212;8.084;2022-12-05T06:27:32;7.30;99.90
61207;DHT22;47070;49.212;8.084;2022-12-05T06:31:32;7.40;99.90
61207;DHT22;47070;49.212;8.084;2022-12-05T06:35:33;7.30;99.90
61207;DHT22;47070;49.212;8.084;2022-12-05T06:39:33;7.20;99.90
61207;DHT22;47070;49.212;8.084;2022-12-05T06:43:34;7.70;99.90
61207;DHT22;47070;49.212;8.084;2022-12-05T06:47:34;7.40;99.90
61207;DHT22;47070;49.212;8.084;2022-12-05T06:51:35;7.60;99.90
61207;DHT22;47070;49.212;8.084;2022-12-05T06:55:35;7.60;99.90
61207;DHT22;47070;49.212;8.084;2022-12-05T06:59:36;7.50;99.90
61207;DHT22;47070;49.212;8.084;2022-12-05T07:03:36;7.10;99.90
61207;DHT22;47070;49.212;8.084;2022-12-05T07:07:36;6.90;99.90
61207;DHT22;47070;49.212;8.084;2022-12-05T07:11:37;7.10;99.90
61207;DHT22;47070;49.212;8.084;2022-12-05T07:15:38;7.20;99.90
61207;DHT22;47070;49.212;8.084;2022-12-05T07:19:38;7.30;99.90
61207;DHT22;47070;49.212;8.084;2022-12-05T07:23:39;7.50;99.90
61207;DHT22;47070;49.212;8.084;2022-12-05T07:27:39;7.70;99.90
61207;DHT22;47070;49.212;8.084;2022-12-05T07:31:40;8.10;99.90
61207;DHT22;47070;49.212;8.084;2022-12-05T07:35:40;8.70;99.90
61207;DHT22;47070;49.212;8.084;2022-12-05T07:39:40;8.60;99.90
61207;DHT22;47070;49.212;8.084;2022-12-05T07:43:41;8.10;99.90
61207;DHT22;47070;49.212;8.084;2022-12-05T07:47:41;7.80;99.90
61207;DHT22;47070;49.212;8.084;2022-12-05T07:51:42;7.80;99.90
61207;DHT22;47070;49.212;8.084;2022-12-05T07:55:43;7.80;99.90
61207;DHT22;47070;49.212;8.084;2022-12-05T07:59:43;8.00;99.90
61207;DHT22;47070;49.212;8.084;2022-12-05T08:03:44;7.80;99.90
61207;DHT22;47070;49.212;8.084;2022-12-05T08:07:44;8.00;99.90
61207;DHT22;47070;49.212;8.084;2022-12-05T08:11:45;7.80;99.90
61207;DHT22;47070;49.212;8.084;2022-12-05T08:15:45;8.20;99.90
61207;DHT22;47070;49.212;8.084;2022-12-05T08:19:46;9.10;99.90
61207;DHT22;47070;49.212;8.084;2022-12-05T08:23:46;8.50;99.90
61207;DHT22;47070;49.212;8.084;2022-12-05T08:27:46;8.20;99.90
61207;DHT22;47070;49.212;8.084;2022-12-05T08:31:48;7.90;99.90
61207;DHT22;47070;49.212;8.084;2022-12-05T08:35:48;8.10;99.90
61207;DHT22;47070;49.212;8.084;2022-12-05T08:39:49;8.20;99.90
61207;DHT22;47070;49.212;8.084;2022-12-05T08:43:49;8.10;99.90
61207;DHT22;47070;49.212;8.084;2022-12-05T08:47:50;8.00;99.90
61207;DHT22;47070;49.212;8.084;2022-12-05T08:51:50;8.00;99.90
61207;DHT22;47070;49.212;8.084;2022-12-05T08:55:51;7.90;99.90
61207;DHT22;47070;49.212;8.084;2022-12-05T08:59:51;8.30;99.90
61207;DHT22;47070;49.212;8.084;2022-12-05T09:03:52;8.50;99.90
61207;DHT22;47070;49.212;8.084;2022-12-05T09:07:52;8.30;99.90
61207;DHT22;47070;49.212;8.084;2022-12-05T09:11:53;8.40;99.90
61207;DHT22;47070;49.212;8.084;2022-12-05T09:15:53;8.60;99.90
61207;DHT22;47070;49.212;8.084;2022-12-05T09:19:54;8.30;99.90
61207;DHT22;47070;49.212;8.084;2022-12-05T09:23:54;8.00;99.90
61207;DHT22;47070;49.212;8.084;2022-12-05T09:27:54;7.80;99.90
61207;DHT22;47070;49.212;8.084;2022-12-05T09:31:55;7.80;99.90
61207;DHT22;47070;49.212;8.084;2022-12-05T09:35:56;7.80;99.90
61207;DHT22;47070;49.212;8.084;2022-12-05T09:39:56;8.10;99.90
61207;DHT22;47070;49.212;8.084;2022-12-05T09:44:01;8.60;99.90
61207;DHT22;47070;49.212;8.084;2022-12-05T09:48:14;8.50;99.90
61207;DHT22;47070;49.212;8.084;2022-12-05T09:52:22;8.40;99.90
61207;DHT22;47070;49.212;8.084;2022-12-05T09:56:28;8.40;99.90
61207;DHT22;47070;49.212;8.084;2022-12-05T10:00:29;8.40;99.90
61207;DHT22;47070;49.212;8.084;2022-12-05T10:16:51;9.50;99.90
61207;DHT22;47070;49.212;8.084;2022-12-05T10:20:56;9.60;99.90
61207;DHT22;47070;49.212;8.084;2022-12-05T10:25:01;9.50;99.90
61207;DHT22;47070;49.212;8.084;2022-12-05T10:33:17;9.30;99.90
61207;DHT22;47070;49.212;8.084;2022-12-05T10:37:21;9.00;99.90
61207;DHT22;47070;49.212;8.084;2022-12-05T10:41:21;8.80;99.90
61207;DHT22;47070;49.212;8.084;2022-12-05T10:45:23;8.50;99.90
61207;DHT22;47070;49.212;8.084;2022-12-05T10:49:23;8.50;99.90
61207;DHT22;47070;49.212;8.084;2022-12-05T10:53:28;8.70;99.90
61207;DHT22;47070;49.212;8.084;2022-12-05T10:57:31;9.30;99.90
61207;DHT22;47070;49.212;8.084;2022-12-05T11:01:32;9.40;99.90
61207;DHT22;47070;49.212;8.084;2022-12-05T11:05:38;9.50;99.90
61207;DHT22;47070;49.212;8.084;2022-12-05T11:09:38;9.20;99.90
61207;DHT22;47070;49.212;8.084;2022-12-05T11:13:57;9.10;99.90
61207;DHT22;47070;49.212;8.084;2022-12-05T11:18:16;9.30;99.90
61207;DHT22;47070;49.212;8.084;2022-12-05T11:22:17;9.50;99.90
61207;DHT22;47070;49.212;8.084;2022-12-05T11:30:19;11.10;99.90
61207;DHT22;47070;49.212;8.084;2022-12-05T11:34:21;12.20;99.90
61207;DHT22;47070;49.212;8.084;2022-12-05T11:38:24;12.50;99.90
61207;DHT22;47070;49.212;8.084;2022-12-05T11:46:45;12.80;99.90
61207;DHT22;47070;49.212;8.084;2022-12-05T11:51:06;12.80;99.90
61207;DHT22;47070;49.212;8.084;2022-12-05T12:32:34;10.80;99.90
61207;DHT22;47070;49.212;8.084;2022-12-05T12:36:51;11.30;99.90
61207;DHT22;47070;49.212;8.084;2022-12-05T12:40:53;10.60;99.90
61207;DHT22;47070;49.212;8.084;2022-12-05T12:45:03;10.30;99.90
61207;DHT22;47070;49.212;8.084;2022-12-05T12:53:33;10.10;99.90
61207;DHT22;47070;49.212;8.084;2022-12-05T13:01:51;10.20;99.90
61207;DHT22;47070;49.212;8.084;2022-12-05T13:05:58;9.70;99.90
61207;DHT22;47070;49.212;8.084;2022-12-05T13:10:02;9.20;99.90
61207;DHT22;47070;49.212;8.084;2022-12-05T13:14:08;9.20;99.90
61207;DHT22;47070;49.212;8.084;2022-12-05T13:18:12;9.50;99.90
61207;DHT22;47070;49.212;8.084;2022-12-05T13:22:14;9.40;99.90
61207;DHT22;47070;49.212;8.084;2022-12-05T13:26:16;10.00;99.90
61207;DHT22;47070;49.212;8.084;2022-12-05T13:30:17;10.60;99.90
61207;DHT22;47070;49.212;8.084;2022-12-05T13:38:29;11.20;99.90
61207;DHT22;47070;49.212;8.084;2022-12-05T13:42:54;12.20;99.90
61207;DHT22;47070;49.212;8.084;2022-12-05T13:46:58;11.90;99.90
61207;DHT22;47070;49.212;8.084;2022-12-05T13:51:04;12.00;99.90
61207;DHT22;47070;49.212;8.084;2022-12-05T13:55:13;11.30;99.90
61207;DHT22;47070;49.212;8.084;2022-12-05T14:11:41;11.00;99.90
61207;DHT22;47070;49.212;8.084;2022-12-05T14:20:24;11.50;99.90
61207;DHT22;47070;49.212;8.084;2022-12-05T14:24:29;11.60;99.90
61207;DHT22;47070;49.212;8.084;2022-12-05T14:32:51;12.20;99.90
61207;DHT22;47070;49.212;8.084;2022-12-05T14:36:53;12.20;99.90
61207;DHT22;47070;49.212;8.084;2022-12-05T14:40:54;12.10;99.90
61207;DHT22;47070;49.212;8.084;2022-12-05T14:44:56;11.30;99.90
61207;DHT22;47070;49.212;8.084;2022-12-05T14:48:57;11.40;99.90
61207;DHT22;47070;49.212;8.084;2022-12-05T14:53:22;10.60;99.90
61207;DHT22;47070;49.212;8.084;2022-12-05T14:57:24;11.20;99.90
61207;DHT22;47070;49.212;8.084;2022-12-05T15:01:26;11.20;99.90
61207;DHT22;47070;49.212;8.084;2022-12-05T15:05:31;11.10;99.90
61207;DHT22;47070;49.212;8.084;2022-12-05T15:09:38;11.80;99.90
61207;DHT22;47070;49.212;8.084;2022-12-05T15:13:40;11.60;99.90
61207;DHT22;47070;49.212;8.084;2022-12-05T15:17:43;11.10;99.90
61207;DHT22;47070;49.212;8.084;2022-12-05T15:21:45;10.50;99.90
61207;DHT22;47070;49.212;8.084;2022-12-05T15:25:46;10.00;99.90
61207;DHT22;47070;49.212;8.084;2022-12-05T15:29:52;9.60;99.90
61207;DHT22;47070;49.212;8.084;2022-12-05T15:33:54;9.10;99.90
61207;DHT22;47070;49.212;8.084;2022-12-05T15:38:03;8.90;99.90
61207;DHT22;47070;49.212;8.084;2022-12-05T15:42:08;9.20;99.90
61207;DHT22;47070;49.212;8.084;2022-12-05T15:54:17;8.90;99.90
61207;DHT22;47070;49.212;8.084;2022-12-05T15:58:21;9.10;99.90
61207;DHT22;47070;49.212;8.084;2022-12-05T16:02:25;8.80;99.90
61207;DHT22;47070;49.212;8.084;2022-12-05T16:06:32;8.60;99.90
61207;DHT22;47070;49.212;8.084;2022-12-05T16:10:33;8.40;99.90
61207;DHT22;47070;49.212;8.084;2022-12-05T16:14:35;8.40;99.90
61207;DHT22;47070;49.212;8.084;2022-12-05T16:18:36;8.50;99.90
61207;DHT22;47070;49.212;8.084;2022-12-05T16:22:41;8.40;99.90
61207;DHT22;47070;49.212;8.084;2022-12-05T16:26:42;8.40;99.90
61207;DHT22;47070;49.212;8.084;2022-12-05T16:30:56;8.30;99.90
61207;DHT22;47070;49.212;8.084;2022-12-05T16:34:57;8.10;99.90
61207;DHT22;47070;49.212;8.084;2022-12-05T16:39:02;8.20;99.90
61207;DHT22;47070;49.212;8.084;2022-12-05T16:43:03;8.00;99.90
61207;DHT22;47070;49.212;8.084;2022-12-05T16:47:05;8.00;99.90
61207;DHT22;47070;49.212;8.084;2022-12-05T16:55:10;8.00;99.90
61207;DHT22;47070;49.212;8.084;2022-12-05T16:59:17;8.00;99.90
61207;DHT22;47070;49.212;8.084;2022-12-05T17:03:19;7.90;99.90
61207;DHT22;47070;49.212;8.084;2022-12-05T17:07:20;8.00;99.90
61207;DHT22;47070;49.212;8.084;2022-12-05T17:11:21;8.10;99.90
61207;DHT22;47070;49.212;8.084;2022-12-05T17:15:22;8.00;99.90
61207;DHT22;47070;49.212;8.084;2022-12-05T17:19:22;7.80;99.90
61207;DHT22;47070;49.212;8.084;2022-12-05T17:23:23;7.70;99.90
61207;DHT22;47070;49.212;8.084;2022-12-05T17:27:24;7.70;99.90
61207;DHT22;47070;49.212;8.084;2022-12-05T17:31:24;7.70;99.90
61207;DHT22;47070;49.212;8.084;2022-12-05T17:35:26;7.70;99.90
61207;DHT22;47070;49.212;8.084;2022-12-05T17:39:27;7.80;99.90
61207;DHT22;47070;49.212;8.084;2022-12-05T17:43:27;7.80;99.90
61207;DHT22;47070;49.212;8.084;2022-12-05T17:47:27;7.60;99.90
61207;DHT22;47070;49.212;8.084;2022-12-05T17:51:28;7.50;99.90
61207;DHT22;47070;49.212;8.084;2022-12-05T17:55:29;7.40;99.90
61207;DHT22;47070;49.212;8.084;2022-12-05T17:59:30;7.50;99.90
61207;DHT22;47070;49.212;8.084;2022-12-05T18:03:30;7.60;99.90
61207;DHT22;47070;49.212;8.084;2022-12-05T18:07:31;7.50;99.90
61207;DHT22;47070;49.212;8.084;2022-12-05T18:11:31;7.50;99.90
61207;DHT22;47070;49.212;8.084;2022-12-05T18:15:32;7.70;99.90
61207;DHT22;47070;49.212;8.084;2022-12-05T18:19:32;8.00;99.90
61207;DHT22;47070;49.212;8.084;2022-12-05T18:23:33;8.10;99.90
61207;DHT22;47070;49.212;8.084;2022-12-05T18:27:34;9.40;99.90
61207;DHT22;47070;49.212;8.084;2022-12-05T18:31:35;9.90;99.90
61207;DHT22;47070;49.212;8.084;2022-12-05T18:35:39;9.40;99.90
61207;DHT22;47070;49.212;8.084;2022-12-05T18:39:39;9.20;99.90
61207;DHT22;47070;49.212;8.084;2022-12-05T18:43:40;8.70;99.90
61207;DHT22;47070;49.212;8.084;2022-12-05T18:47:40;8.90;99.90
61207;DHT22;47070;49.212;8.084;2022-12-05T18:51:40;9.50;99.90
61207;DHT22;47070;49.212;8.084;2022-12-05T18:55:41;9.00;99.90
61207;DHT22;47070;49.212;8.084;2022-12-05T18:59:41;9.10;99.90
61207;DHT22;47070;49.212;8.084;2022-12-05T19:03:42;8.80;99.90
61207;DHT22;47070;49.212;8.084;2022-12-05T19:07:42;8.60;99.90
61207;DHT22;47070;49.212;8.084;2022-12-05T19:11:44;8.50;99.90
61207;DHT22;47070;49.212;8.084;2022-12-05T19:15:45;8.80;99.90
61207;DHT22;47070;49.212;8.084;2022-12-05T19:19:46;9.00;99.90
61207;DHT22;47070;49.212;8.084;2022-12-05T19:23:46;9.20;99.90
61207;DHT22;47070;49.212;8.084;2022-12-05T19:27:46;9.50;99.90
61207;DHT22;47070;49.212;8.084;2022-12-05T19:31:47;10.00;99.90
61207;DHT22;47070;49.212;8.084;2022-12-05T19:35:47;10.00;99.90
61207;DHT22;47070;49.212;8.084;2022-12-05T19:39:48;9.80;99.90
61207;DHT22;47070;49.212;8.084;2022-12-05T19:43:51;9.70;99.90
61207;DHT22;47070;49.212;8.084;2022-12-05T19:47:51;9.60;99.90
61207;DHT22;47070;49.212;8.084;2022-12-05T19:51:52;10.20;99.90
61207;DHT22;47070;49.212;8.084;2022-12-05T19:55:52;10.20;99.90
61207;DHT22;47070;49.212;8.084;2022-12-05T19:59:58;10.00;99.90
61207;DHT22;47070;49.212;8.084;2022-12-05T20:03:59;10.30;99.90
61207;DHT22;47070;49.212;8.084;2022-12-05T20:08:00;9.90;99.90
61207;DHT22;47070;49.212;8.084;2022-12-05T20:12:01;9.70;99.90
61207;DHT22;47070;49.212;8.084;2022-12-05T20:16:03;9.60;99.90
61207;DHT22;47070;49.212;8.084;2022-12-05T20:20:04;10.20;99.90
61207;DHT22;47070;49.212;8.084;2022-12-05T20:24:05;9.70;99.90
61207;DHT22;47070;49.212;8.084;2022-12-05T20:28:06;10.40;99.90
61207;DHT22;47070;49.212;8.084;2022-12-05T20:32:08;10.60;99.90
61207;DHT22;47070;49.212;8.084;2022-12-05T20:36:10;10.80;99.90
61207;DHT22;47070;49.212;8.084;2022-12-05T20:40:11;10.00;99.90
61207;DHT22;47070;49.212;8.084;2022-12-05T20:44:12;9.60;99.90
61207;DHT22;47070;49.212;8.084;2022-12-05T20:48:13;10.20;99.90
61207;DHT22;47070;49.212;8.084;2022-12-05T20:52:13;10.30;99.90
61207;DHT22;47070;49.212;8.084;2022-12-05T20:56:15;10.40;99.90
61207;DHT22;47070;49.212;8.084;2022-12-05T21:00:15;10.20;99.90
61207;DHT22;47070;49.212;8.084;2022-12-05T21:04:16;10.70;99.90
61207;DHT22;47070;49.212;8.084;2022-12-05T21:08:16;10.60;99.90
61207;DHT22;47070;49.212;8.084;2022-12-05T21:12:17;10.60;99.90
61207;DHT22;47070;49.212;8.084;2022-12-05T21:16:18;10.60;99.90
61207;DHT22;47070;49.212;8.084;2022-12-05T21:20:19;10.00;99.90
61207;DHT22;47070;49.212;8.084;2022-12-05T21:24:20;9.20;99.90
61207;DHT22;47070;49.212;8.084;2022-12-05T21:28:20;9.40;99.90
61207;DHT22;47070;49.212;8.084;2022-12-05T21:32:21;9.70;99.90
61207;DHT22;47070;49.212;8.084;2022-12-05T21:36:22;10.30;99.90
61207;DHT22;47070;49.212;8.084;2022-12-05T21:40:23;10.30;99.90
61207;DHT22;47070;49.212;8.084;2022-12-05T21:44:23;10.00;99.90
61207;DHT22;47070;49.212;8.084;2022-12-05T21:48:24;11.50;99.90
61207;DHT22;47070;49.212;8.084;2022-12-05T21:52:25;12.00;99.90
61207;DHT22;47070;49.212;8.084;2022-12-05T21:56:25;11.20;99.90
61207;DHT22;47070;49.212;8.084;2022-12-05T22:00:25;11.00;99.90
61207;DHT22;47070;49.212;8.084;2022-12-05T22:04:26;11.30;99.90
61207;DHT22;47070;49.212;8.084;2022-12-05T22:08:27;11.30;99.90
61207;DHT22;47070;49.212;8.084;2022-12-05T22:12:27;11.50;99.90
61207;DHT22;47070;49.212;8.084;2022-12-05T22:16:28;10.50;99.90
61207;DHT22;47070;49.212;8.084;2022-12-05T22:20:28;10.00;99.90
61207;DHT22;47070;49.212;8.084;2022-12-05T22:24:29;9.40;99.90
61207;DHT22;47070;49.212;8.084;2022-12-05T22:28:30;10.00;99.90
61207;DHT22;47070;49.212;8.084;2022-12-05T22:32:30;9.90;99.90
61207;DHT22;47070;49.212;8.084;2022-12-05T22:36:31;10.20;99.90
61207;DHT22;47070;49.212;8.084;2022-12-05T22:40:34;10.30;99.90
61207;DHT22;47070;49.212;8.084;2022-12-05T22:44:34;11.20;99.90
61207;DHT22;47070;49.212;8.084;2022-12-05T22:48:35;11.40;99.90
61207;DHT22;47070;49.212;8.084;2022-12-05T22:52:36;11.50;99.90
61207;DHT22;47070;49.212;8.084;2022-12-05T22:56:36;11.90;99.90
61207;DHT22;47070;49.212;8.084;2022-12-05T23:00:36;11.40;99.90
61207;DHT22;47070;49.212;8.084;2022-12-05T23:04:37;11.70;99.90
61207;DHT22;47070;49.212;8.084;2022-12-05T23:08:38;12.60;99.90
61207;DHT22;47070;49.212;8.084;2022-12-05T23:12:39;12.80;99.90
61207;DHT22;47070;49.212;8.084;2022-12-05T23:16:39;11.90;99.90
61207;DHT22;47070;49.212;8.084;2022-12-05T23:20:40;11.50;99.90
61207;DHT22;47070;49.212;8.084;2022-12-05T23:24:40;11.80;99.90
61207;DHT22;47070;49.212;8.084;2022-12-05T23:28:41;11.70;99.90
61207;DHT22;47070;49.212;8.084;2022-12-05T23:32:41;12.10;99.90
61207;DHT22;47070;49.212;8.084;2022-12-05T23:36:42;11.40;99.90
61207;DHT22;47070;49.212;8.084;2022-12-05T23:40:42;12.30;99.90
61207;DHT22;47070;49.212;8.084;2022-12-05T23:44:42;12.20;99.90
61207;DHT22;47070;49.212;8.084;2022-12-05T23:48:43;11.40;99.90
61207;DHT22;47070;49.212;8.084;2022-12-05T23:52:43;11.30;99.90
61207;DHT22;47070;49.212;8.084;2022-12-05T23:56:44;11.60;99.90
